Volcan De Tauce — EAGW — position and weather

sailwx.info

Track history (hours):
 
Tides and Currents Weather Stations Pressure Air Temp Water Temp Dewpoint Dewpoint Depression Visibility Wind Speed Wind Dir Waves Ship Positions

Volcan De Tauce

Last reported at 2017-Mar-23 13:13 UTC. Time now 2017-Mar-24 10:30 UTC.
Position N 28°06' W 014°10'.

Length 120 m; draft 4.8 m.

Type: Passenger vessel. MMSI: 224761000.

Date/timePositionNaut miles runAvg speedWind from/ knotsBaromVisibWave heightAir tempDewpointWater temp
2017-Mar-23 13:13N 28°06' W 014°10'7 0.9
2017-Mar-23 05:06N 28°09' W 014°03'3614.3
2017-Mar-23 02:33N 28°03' W 014°44'1514.7
2017-Mar-23 01:33N 28°04' W 015°00'1514.7
2017-Mar-23 00:33N 28°07' W 015°17'7 7.2
2017-Mar-22 23:33N 28°08' W 015°25'0 0.0
2017-Mar-22 22:33N 28°08' W 015°25'0 0.0
2017-Mar-22 21:33N 28°08' W 015°25'0 0.0
2017-Mar-22 20:34N 28°08' W 015°25'0 0.0
2017-Mar-22 19:34N 28°08' W 015°25'0 0.0
2017-Mar-22 18:34N 28°08' W 015°25'1 0.6
2017-Mar-22 17:34N 28°08' W 015°25'1414.4
2017-Mar-22 16:33N 28°05' W 015°08'1615.9
2017-Mar-22 15:33N 28°04' W 014°50'1615.8
2017-Mar-22 14:33N 28°02' W 014°33'1715.9
2017-Mar-22 13:30N 28°04' W 014°14'11 1.3
2017-Mar-22 05:08N 28°09' W 014°03'3714.4
2017-Mar-22 02:32N 28°03' W 014°45'1414.9
2017-Mar-22 01:33N 28°05' W 015°01'1514.9
2017-Mar-22 00:33N 28°06' W 015°18'7 6.5
2017-Mar-21 23:33N 28°09' W 015°25'0 0.0
2017-Mar-21 22:33N 28°09' W 015°25'0 0.0
2017-Mar-21 21:33N 28°09' W 015°25'0 0.0
2017-Mar-21 20:33N 28°09' W 015°25'0 0.0
2017-Mar-21 19:33N 28°09' W 015°25'0 0.0
2017-Mar-21 18:33N 28°09' W 015°25'1 0.8
2017-Mar-21 17:33N 28°08' W 015°25'1414.2
2017-Mar-21 16:34N 28°06' W 015°09'1615.9
2017-Mar-21 15:34N 28°04' W 014°51'1615.7
2017-Mar-21 14:33N 28°02' W 014°33'1716.0
2017-Mar-21 13:30N 28°04' W 014°14'  
2017-Mar-18 17:29N 28°07' W 015°24'  
2017-Mar-16 02:22N 28°03' W 014°46'1315.7
2017-Mar-16 01:33N 28°04' W 015°00'1615.8
2017-Mar-16 00:33N 28°06' W 015°18'7 6.5
2017-Mar-15 23:33N 28°09' W 015°25'0 0.0
2017-Mar-15 22:33N 28°09' W 015°25'0 0.0
2017-Mar-15 21:33N 28°09' W 015°25'0 0.0
2017-Mar-15 20:33N 28°09' W 015°25'0 0.0
2017-Mar-15 19:33N 28°09' W 015°25'0 0.0
2017-Mar-15 18:33N 28°09' W 015°25'2 2.0
2017-Mar-15 17:33N 28°07' W 015°23'1515.1
2017-Mar-15 16:33N 28°05' W 015°07'1515.1
2017-Mar-15 15:33N 28°04' W 014°50'1515.2
2017-Mar-15 14:33N 28°02' W 014°32'2015.5
2017-Mar-15 13:15N 28°06' W 014°10'4 0.5
2017-Mar-15 04:33N 28°08' W 014°06'3014.7
2017-Mar-15 02:31N 28°03' W 014°40'1515.6
2017-Mar-15 01:33N 28°04' W 014°57'1515.4
2017-Mar-15 00:33N 28°06' W 015°14'1010.0
2017-Mar-14 23:33N 28°09' W 015°25'0 0.0
2017-Mar-14 22:33N 28°09' W 015°25'0 0.0
2017-Mar-14 21:33N 28°09' W 015°25'0 0.0
2017-Mar-14 20:33N 28°09' W 015°25'0 0.0
2017-Mar-14 19:33N 28°09' W 015°25'0 0.0
2017-Mar-14 18:33N 28°09' W 015°25'8 7.6
2017-Mar-14 17:33N 28°06' W 015°17'1515.5
2017-Mar-14 16:33N 28°05' W 014°59'1515.4
2017-Mar-14 15:33N 28°03' W 014°42'1616.1
2017-Mar-14 14:32N 28°01' W 014°23'1616.3
2017-Mar-14 13:33N 28°07' W 014°07'5 0.7
2017-Mar-14 06:17N 28°09' W 014°01'2514.3
2017-Mar-14 04:33N 28°01' W 014°28'1414.2
2017-Mar-14 03:33N 28°00' W 014°44'1414.2
2017-Mar-14 02:33N 28°02' W 014°60'1414.3
2017-Mar-14 01:33N 28°05' W 015°16'9 9.0
2017-Mar-14 00:33N 28°09' W 015°25'0 0.0
2017-Mar-13 23:33N 28°09' W 015°25'0 0.0
2017-Mar-13 22:33N 28°09' W 015°25'0 0.0
2017-Mar-13 21:33N 28°09' W 015°25'0 0.0
2017-Mar-13 20:33N 28°09' W 015°25'0 0.0
2017-Mar-13 19:33N 28°09' W 015°25'0 0.0
2017-Mar-13 18:33N 28°09' W 015°25'0 0.0
2017-Mar-13 17:33N 28°09' W 015°25'0 0.0
2017-Mar-13 16:33N 28°09' W 015°25'0 0.0
2017-Mar-13 15:33N 28°09' W 015°25'0 0.0
2017-Mar-13 14:33N 28°09' W 015°25'0 0.0
2017-Mar-13 13:33N 28°09' W 015°25'  
Track history (hours):
 
Tides and Currents Weather Stations Pressure Air Temp Water Temp Dewpoint Dewpoint Depression Visibility Wind Speed Wind Dir Waves Ship Positions

Volcan De Tauce

Last reported at 2017-Mar-23 13:13 UTC. Time now 2017-Mar-24 10:30 UTC.
Position N 28°06' W 014°10'.

Length 120 m; draft 4.8 m.

Type: Passenger vessel. MMSI: 224761000.

Date/timePositionNaut miles runAvg speedWind from/ knotsBaromVisibWave heightAir tempDewpointWater temp
2017-Mar-23 13:13N 28°06' W 014°10'7 0.9
2017-Mar-23 05:06N 28°09' W 014°03'3614.3
2017-Mar-23 02:33N 28°03' W 014°44'1514.7
2017-Mar-23 01:33N 28°04' W 015°00'1514.7
2017-Mar-23 00:33N 28°07' W 015°17'7 7.2
2017-Mar-22 23:33N 28°08' W 015°25'0 0.0
2017-Mar-22 22:33N 28°08' W 015°25'0 0.0
2017-Mar-22 21:33N 28°08' W 015°25'0 0.0
2017-Mar-22 20:34N 28°08' W 015°25'0 0.0
2017-Mar-22 19:34N 28°08' W 015°25'0 0.0
2017-Mar-22 18:34N 28°08' W 015°25'1 0.6
2017-Mar-22 17:34N 28°08' W 015°25'1414.4
2017-Mar-22 16:33N 28°05' W 015°08'1615.9
2017-Mar-22 15:33N 28°04' W 014°50'1615.8
2017-Mar-22 14:33N 28°02' W 014°33'1715.9
2017-Mar-22 13:30N 28°04' W 014°14'11 1.3
2017-Mar-22 05:08N 28°09' W 014°03'3714.4
2017-Mar-22 02:32N 28°03' W 014°45'1414.9
2017-Mar-22 01:33N 28°05' W 015°01'1514.9
2017-Mar-22 00:33N 28°06' W 015°18'7 6.5
2017-Mar-21 23:33N 28°09' W 015°25'0 0.0
2017-Mar-21 22:33N 28°09' W 015°25'0 0.0
2017-Mar-21 21:33N 28°09' W 015°25'0 0.0
2017-Mar-21 20:33N 28°09' W 015°25'0 0.0
2017-Mar-21 19:33N 28°09' W 015°25'0 0.0
2017-Mar-21 18:33N 28°09' W 015°25'1 0.8
2017-Mar-21 17:33N 28°08' W 015°25'1414.2
2017-Mar-21 16:34N 28°06' W 015°09'1615.9
2017-Mar-21 15:34N 28°04' W 014°51'1615.7
2017-Mar-21 14:33N 28°02' W 014°33'1716.0
2017-Mar-21 13:30N 28°04' W 014°14'  
2017-Mar-18 17:29N 28°07' W 015°24'  
2017-Mar-16 02:22N 28°03' W 014°46'1315.7
2017-Mar-16 01:33N 28°04' W 015°00'1615.8
2017-Mar-16 00:33N 28°06' W 015°18'7 6.5
2017-Mar-15 23:33N 28°09' W 015°25'0 0.0
2017-Mar-15 22:33N 28°09' W 015°25'0 0.0
2017-Mar-15 21:33N 28°09' W 015°25'0 0.0
2017-Mar-15 20:33N 28°09' W 015°25'0 0.0
2017-Mar-15 19:33N 28°09' W 015°25'0 0.0
2017-Mar-15 18:33N 28°09' W 015°25'2 2.0
2017-Mar-15 17:33N 28°07' W 015°23'1515.1
2017-Mar-15 16:33N 28°05' W 015°07'1515.1
2017-Mar-15 15:33N 28°04' W 014°50'1515.2
2017-Mar-15 14:33N 28°02' W 014°32'2015.5
2017-Mar-15 13:15N 28°06' W 014°10'4 0.5
2017-Mar-15 04:33N 28°08' W 014°06'3014.7
2017-Mar-15 02:31N 28°03' W 014°40'1515.6
2017-Mar-15 01:33N 28°04' W 014°57'1515.4
2017-Mar-15 00:33N 28°06' W 015°14'1010.0
2017-Mar-14 23:33N 28°09' W 015°25'0 0.0
2017-Mar-14 22:33N 28°09' W 015°25'0 0.0
2017-Mar-14 21:33N 28°09' W 015°25'0 0.0
2017-Mar-14 20:33N 28°09' W 015°25'0 0.0
2017-Mar-14 19:33N 28°09' W 015°25'0 0.0
2017-Mar-14 18:33N 28°09' W 015°25'8 7.6
2017-Mar-14 17:33N 28°06' W 015°17'1515.5
2017-Mar-14 16:33N 28°05' W 014°59'1515.4
2017-Mar-14 15:33N 28°03' W 014°42'1616.1
2017-Mar-14 14:32N 28°01' W 014°23'1616.3
2017-Mar-14 13:33N 28°07' W 014°07'5 0.7
2017-Mar-14 06:17N 28°09' W 014°01'2514.3
2017-Mar-14 04:33N 28°01' W 014°28'1414.2
2017-Mar-14 03:33N 28°00' W 014°44'1414.2
2017-Mar-14 02:33N 28°02' W 014°60'1414.3
2017-Mar-14 01:33N 28°05' W 015°16'9 9.0
2017-Mar-14 00:33N 28°09' W 015°25'0 0.0
2017-Mar-13 23:33N 28°09' W 015°25'0 0.0
2017-Mar-13 22:33N 28°09' W 015°25'0 0.0
2017-Mar-13 21:33N 28°09' W 015°25'0 0.0
2017-Mar-13 20:33N 28°09' W 015°25'0 0.0
2017-Mar-13 19:33N 28°09' W 015°25'0 0.0
2017-Mar-13 18:33N 28°09' W 015°25'0 0.0
2017-Mar-13 17:33N 28°09' W 015°25'0 0.0
2017-Mar-13 16:33N 28°09' W 015°25'0 0.0
2017-Mar-13 15:33N 28°09' W 015°25'0 0.0
2017-Mar-13 14:33N 28°09' W 015°25'0 0.0
2017-Mar-13 13:33N 28°09' W 015°25'  

Dump ship's entire track history